ASN logo
ASN Wikibase Occurrence # 190303
Last updated: 10 September 2019
This information is added by users of ASN. Neither ASN nor the Flight Safety Foundation are responsible for the completeness or correctness of this information. If you feel this information is incomplete or incorrect, you can submit corrected information.

Date:21-SEP-2016
Time:19:45
Type:Silhouette image of generic A359 model; specific model in this crash may look slightly different
Airbus A350-941
Owner/operator:Thai Airways
Registration: HS-THB
C/n / msn: 044
Fatalities:Fatalities: 0 / Occupants: 152
Other fatalities:0
Aircraft damage: Minor
Location:Phuket International Airport (HKT/VTSP) -   Thailand
Phase: Landing
Nature:Domestic Scheduled Passenger
Departure airport:Bangkok Suvarnabhumi Airport (BKK/VTBS))
Destination airport:Phuket International Airport (HKT/VTSP)
Narrative:
Thai Airways flight TG221, operated by an Airbus A350-941, suffered a brief partial runway excursion during rollout after landing on runway 27 at Phuket International Airport, Thailand.
The brand new aircraft, delivered on August 31, 2016, was undergoing domestic familiarisation flights.
None of the 138 passengers or 14 crew members were injured.

Weather at the incident time (12:45 UTC / 19:45 LT):
VTSP 211230Z 24012KT 1000 +RA SCT015 SCT020 BKN100 24/22 Q1013 TEMPO SHRA
VTSP 211300Z 26020KT 2000 +RA SCT015 SCT020 BKN100 24/22 Q1013 NOSIG

Sources:

https://www.bangkokpost.com/news/transport/1092033/new-airbus-has-near-miss-landing-at-phuket
https://thethaiger.com/news/phuket/Phuketbound-plane-veers-off-runway


Revision history:

Date/timeContributorUpdates
22-Sep-2016 11:09 harro Added
26-Oct-2016 07:35 Anon. Updated [Embed code]

Corrections or additions? ... Edit this accident description